createdAt,value
2017-09-04T00:01:25.484Z,8.80
2017-09-04T00:03:53.007Z,7.90
2017-09-04T00:06:20.538Z,8.57
2017-09-04T00:08:48.804Z,9.23
2017-09-04T00:11:16.303Z,8.63
2017-09-04T00:13:43.814Z,9.30
2017-09-04T00:16:12.075Z,9.23
2017-09-04T00:18:39.667Z,9.43
2017-09-04T00:21:07.171Z,10.73
2017-09-04T00:23:34.690Z,9.33
2017-09-04T00:26:02.194Z,10.07
2017-09-04T00:28:29.907Z,8.23
2017-09-04T00:30:57.571Z,10.53
2017-09-04T00:33:25.130Z,8.47
2017-09-04T00:35:52.787Z,8.80
2017-09-04T00:38:20.455Z,9.60
2017-09-04T00:40:48.001Z,9.43
2017-09-04T00:43:15.580Z,9.13
2017-09-04T00:45:43.131Z,9.20
2017-09-04T00:48:10.634Z,8.37
2017-09-04T00:50:38.243Z,8.03
2017-09-04T00:53:06.412Z,8.67
2017-09-04T00:55:33.926Z,8.87
2017-09-04T00:58:01.539Z,10.23
2017-09-04T01:00:29.199Z,9.07
2017-09-04T01:02:56.759Z,9.20
2017-09-04T01:05:24.270Z,9.57
2017-09-04T01:07:52.694Z,10.03
2017-09-04T01:10:20.382Z,11.03
2017-09-04T01:12:48.019Z,10.10
2017-09-04T01:15:16.498Z,8.43
2017-09-04T01:17:43.999Z,8.63
2017-09-04T01:20:11.526Z,8.30
2017-09-04T01:22:39.076Z,9.43
2017-09-04T01:25:07.452Z,8.40
2017-09-04T01:27:34.970Z,9.17
2017-09-04T01:30:02.562Z,8.97
2017-09-04T01:32:30.798Z,9.07
2017-09-04T01:34:58.403Z,9.17
2017-09-04T01:37:26.779Z,9.83
2017-09-04T01:39:54.938Z,9.20
2017-09-04T01:42:22.458Z,10.33
2017-09-04T01:44:50.014Z,10.80
2017-09-04T01:47:18.351Z,10.90
2017-09-04T01:49:45.859Z,10.70
2017-09-04T01:52:13.383Z,12.00
2017-09-04T01:54:40.888Z,10.77
2017-09-04T01:57:08.481Z,9.67
2017-09-04T01:59:36.043Z,10.80
2017-09-04T02:02:03.803Z,10.40
2017-09-04T02:04:31.358Z,10.73
2017-09-04T02:06:59.022Z,10.43
2017-09-04T02:09:26.645Z,9.90
2017-09-04T02:11:54.238Z,10.23
2017-09-04T02:14:22.627Z,9.50
2017-09-04T02:16:50.435Z,9.53
2017-09-04T02:19:17.958Z,10.07
2017-09-04T02:21:45.507Z,9.50
2017-09-04T02:24:13.143Z,11.73
2017-09-04T02:26:40.726Z,10.73
2017-09-04T02:29:08.282Z,9.03
2017-09-04T02:31:35.789Z,10.40
2017-09-04T02:34:04.267Z,10.63
2017-09-04T02:36:31.742Z,9.27
2017-09-04T02:38:59.344Z,9.83
2017-09-04T02:41:26.850Z,10.17
2017-09-04T02:43:54.455Z,9.27
2017-09-04T02:46:21.951Z,9.90
2017-09-04T02:48:49.446Z,9.60
2017-09-04T02:51:16.967Z,8.67
2017-09-04T02:53:44.475Z,8.50
2017-09-04T02:56:12.963Z,8.53
2017-09-04T02:58:40.531Z,9.97
2017-09-04T03:01:08.051Z,7.80
2017-09-04T03:03:35.750Z,8.50
2017-09-04T03:06:03.280Z,9.00
2017-09-04T03:08:31.084Z,9.03
2017-09-04T03:10:58.607Z,7.73
2017-09-04T03:13:27.623Z,7.97
2017-09-04T03:15:55.178Z,8.70
2017-09-04T03:18:22.679Z,8.50
2017-09-04T03:20:50.314Z,10.10
2017-09-04T03:23:17.818Z,10.77
2017-09-04T03:25:45.420Z,9.60
2017-09-04T03:28:12.918Z,9.67
2017-09-04T03:30:40.433Z,8.27
2017-09-04T03:33:07.995Z,8.70
2017-09-04T03:35:35.547Z,8.77
2017-09-04T03:38:03.111Z,9.63
2017-09-04T03:40:30.606Z,8.70
2017-09-04T03:42:58.122Z,9.27
2017-09-04T03:45:25.627Z,9.83
2017-09-04T03:47:53.215Z,8.40
2017-09-04T03:50:20.715Z,9.50
2017-09-04T03:52:48.238Z,10.57
2017-09-04T03:55:16.475Z,10.10
2017-09-04T03:57:44.164Z,9.87
2017-09-04T04:00:11.663Z,9.70
2017-09-04T04:02:39.316Z,8.43
2017-09-04T04:05:06.815Z,9.30
2017-09-04T04:07:34.339Z,9.87
2017-09-04T04:10:01.979Z,8.40
2017-09-04T04:12:29.483Z,9.33
2017-09-04T04:14:57.102Z,8.57
2017-09-04T04:17:24.666Z,9.47
2017-09-04T04:19:53.052Z,9.70
2017-09-04T04:22:20.602Z,9.50
2017-09-04T04:24:48.119Z,9.80
2017-09-04T04:27:15.803Z,9.70
2017-09-04T04:29:43.383Z,10.00
2017-09-04T04:32:11.250Z,9.20
2017-09-04T04:34:39.602Z,9.53
2017-09-04T04:37:07.107Z,9.17
2017-09-04T04:39:34.626Z,8.87
2017-09-04T04:42:02.218Z,10.73
2017-09-04T04:44:30.586Z,11.17
2017-09-04T04:46:58.135Z,9.63
2017-09-04T04:49:25.694Z,10.00
2017-09-04T04:51:53.211Z,10.00
2017-09-04T04:54:21.428Z,9.17
2017-09-04T04:56:48.995Z,9.67
2017-09-04T04:59:16.498Z,9.43
2017-09-04T05:01:44.211Z,9.07
2017-09-04T05:04:11.775Z,11.30
2017-09-04T05:06:39.335Z,10.70
2017-09-04T05:09:06.895Z,10.90
2017-09-04T05:11:35.362Z,9.73
2017-09-04T05:14:03.622Z,8.53
2017-09-04T05:16:31.819Z,11.30
2017-09-04T05:18:59.324Z,10.40
2017-09-04T05:21:26.930Z,9.00
2017-09-04T05:23:54.439Z,11.50
2017-09-04T05:26:22.787Z,11.13
2017-09-04T05:28:50.292Z,11.00
2017-09-04T05:31:17.818Z,10.40
2017-09-04T05:33:45.319Z,12.40
2017-09-04T05:36:13.738Z,13.70
2017-09-04T05:38:41.259Z,10.60
2017-09-04T05:41:08.865Z,10.30
2017-09-04T05:43:36.408Z,10.80
2017-09-04T05:46:03.959Z,12.30
2017-09-04T05:48:32.334Z,10.73
2017-09-04T05:50:59.899Z,8.83
2017-09-04T05:53:27.559Z,11.87
2017-09-04T05:55:55.130Z,10.57
2017-09-04T05:58:22.646Z,9.03
2017-09-04T06:00:50.343Z,9.63
2017-09-04T06:03:17.872Z,10.53
2017-09-04T06:05:45.378Z,10.37
2017-09-04T06:08:13.014Z,10.10
2017-09-04T06:10:40.575Z,10.30
2017-09-04T06:13:08.135Z,9.73
2017-09-04T06:15:35.648Z,10.53
2017-09-04T06:18:03.454Z,11.00
2017-09-04T06:20:31.010Z,9.97
2017-09-04T06:22:58.574Z,11.77
2017-09-04T06:25:26.132Z,11.07
2017-09-04T06:27:53.695Z,11.10
2017-09-04T06:30:22.070Z,11.30
2017-09-04T06:32:50.242Z,11.17
2017-09-04T06:35:17.802Z,12.23
2017-09-04T06:37:45.362Z,12.77
2017-09-04T06:40:13.539Z,13.90
2017-09-04T06:42:41.094Z,12.80
2017-09-04T06:45:08.667Z,12.80
2017-09-04T06:47:36.414Z,12.77
2017-09-04T06:50:03.938Z,13.13
2017-09-04T06:52:31.466Z,12.70
2017-09-04T06:54:58.986Z,12.47
2017-09-04T06:57:27.208Z,13.23
2017-09-04T06:59:54.735Z,14.30
2017-09-04T07:02:22.242Z,12.40
2017-09-04T07:04:49.855Z,13.80
2017-09-04T07:07:17.413Z,14.40
2017-09-04T07:09:45.062Z,13.37
2017-09-04T07:12:12.571Z,14.40
2017-09-04T07:14:40.178Z,15.90
2017-09-04T07:17:07.741Z,15.63
2017-09-04T07:19:35.294Z,14.37
2017-09-04T07:22:02.855Z,15.00
2017-09-04T07:24:30.451Z,13.57
2017-09-04T07:26:58.179Z,13.80
2017-09-04T07:29:26.331Z,13.27
2017-09-04T07:31:53.911Z,13.53
2017-09-04T07:34:21.419Z,14.67
2017-09-04T07:36:49.030Z,12.73
2017-09-04T07:39:16.672Z,14.30
2017-09-04T07:41:44.263Z,12.67
2017-09-04T07:44:11.766Z,13.13
2017-09-04T07:46:39.366Z,11.43
2017-09-04T07:49:06.870Z,11.20
2017-09-04T07:51:34.403Z,10.73
2017-09-04T07:54:02.047Z,9.80
2017-09-04T07:56:29.606Z,10.43
2017-09-04T07:58:57.979Z,10.20
2017-09-04T08:01:26.267Z,9.50
2017-09-04T08:03:53.814Z,9.17
2017-09-04T08:06:21.311Z,12.33
2017-09-04T08:08:48.826Z,10.03
2017-09-04T08:11:16.334Z,9.83
2017-09-04T08:13:43.872Z,10.00
2017-09-04T08:16:11.416Z,11.80
2017-09-04T08:18:38.966Z,11.63
2017-09-04T08:21:06.546Z,11.10
2017-09-04T08:23:34.155Z,10.67
2017-09-04T08:26:02.526Z,11.30
2017-09-04T08:28:30.047Z,10.97
2017-09-04T08:30:57.551Z,9.83
2017-09-04T08:33:25.067Z,10.83
2017-09-04T08:35:52.690Z,10.70
2017-09-04T08:38:20.215Z,11.40
2017-09-04T08:40:47.819Z,10.77
2017-09-04T08:43:15.470Z,10.83
2017-09-04T08:45:43.883Z,12.60
2017-09-04T08:48:11.415Z,10.50
2017-09-04T08:50:39.078Z,11.50
2017-09-04T08:53:07.507Z,10.93
2017-09-04T08:55:35.027Z,9.70
2017-09-04T08:58:02.527Z,9.70
2017-09-04T09:00:30.132Z,8.60
2017-09-04T09:02:57.790Z,8.90
2017-09-04T09:05:25.454Z,11.50
2017-09-04T09:07:53.679Z,8.90
2017-09-04T09:10:21.207Z,8.43
2017-09-04T09:12:48.738Z,7.97
2017-09-04T09:15:16.255Z,7.50
2017-09-04T09:17:43.866Z,7.83
2017-09-04T09:20:11.528Z,8.07
2017-09-04T09:22:39.031Z,7.30
2017-09-04T09:25:07.247Z,6.17
2017-09-04T09:27:34.879Z,6.13
2017-09-04T09:30:02.384Z,5.80
2017-09-04T09:32:29.904Z,6.20
2017-09-04T09:34:57.407Z,6.77
2017-09-04T09:37:24.927Z,6.83
2017-09-04T09:39:52.422Z,6.90
2017-09-04T09:42:19.967Z,7.90
2017-09-04T09:44:47.470Z,5.77
2017-09-04T09:47:15.078Z,5.80
2017-09-04T09:49:42.579Z,5.80
2017-09-04T09:52:10.094Z,5.77
2017-09-04T09:54:37.593Z,6.57
2017-09-04T09:57:05.103Z,5.83
2017-09-04T09:59:32.606Z,6.67
2017-09-04T10:02:00.127Z,5.40
2017-09-04T10:04:27.627Z,6.20
2017-09-04T10:06:56.035Z,6.37
2017-09-04T10:09:23.639Z,6.27
2017-09-04T10:11:51.199Z,5.67
2017-09-04T10:14:18.719Z,4.90
2017-09-04T10:16:46.227Z,5.50
2017-09-04T10:19:13.739Z,7.93
2017-09-04T10:21:41.239Z,6.17
2017-09-04T10:24:08.762Z,10.40
2017-09-04T10:26:36.363Z,5.87
2017-09-04T10:29:03.975Z,7.10
2017-09-04T10:31:31.470Z,5.63
2017-09-04T10:33:59.070Z,6.53
2017-09-04T10:36:26.566Z,5.50
2017-09-04T10:38:54.082Z,4.83
2017-09-04T10:41:21.583Z,4.87
2017-09-04T10:43:49.118Z,5.50
2017-09-04T10:46:16.619Z,5.03
2017-09-04T10:48:44.203Z,6.47
2017-09-04T10:51:11.723Z,5.17
2017-09-04T10:53:39.227Z,5.00
2017-09-04T10:56:06.748Z,5.60
2017-09-04T10:58:34.295Z,5.40
2017-09-04T11:01:01.852Z,5.53
2017-09-04T11:03:29.350Z,4.23
2017-09-04T11:05:56.870Z,4.27
2017-09-04T11:08:24.403Z,4.30
2017-09-04T11:10:51.923Z,5.23
2017-09-04T11:13:19.691Z,6.67
2017-09-04T11:15:47.207Z,5.00
2017-09-04T11:18:14.698Z,4.60
2017-09-04T11:20:43.091Z,4.87
2017-09-04T11:23:10.595Z,4.93
2017-09-04T11:25:38.107Z,5.23
2017-09-04T11:28:05.602Z,4.93
2017-09-04T11:30:33.118Z,4.43
2017-09-04T11:33:07.659Z,4.20
2017-09-04T11:35:35.178Z,5.50
2017-09-04T11:38:03.640Z,4.00
2017-09-04T11:40:31.190Z,4.30
2017-09-04T11:42:58.687Z,4.27
2017-09-04T11:45:26.198Z,4.50
2017-09-04T11:47:53.696Z,4.47
2017-09-04T11:50:21.366Z,4.40
2017-09-04T11:52:48.868Z,5.10
2017-09-04T11:55:16.371Z,6.80
2017-09-04T11:57:43.919Z,4.37
2017-09-04T12:00:12.191Z,3.93
2017-09-04T12:02:39.750Z,4.03
2017-09-04T12:05:07.947Z,3.97
2017-09-04T12:07:35.467Z,4.03
2017-09-04T12:10:02.971Z,5.17
2017-09-04T12:12:30.497Z,6.40
2017-09-04T12:14:58.111Z,4.20
2017-09-04T12:17:26.731Z,4.50
2017-09-04T12:19:54.232Z,4.10
2017-09-04T12:22:21.947Z,4.60
2017-09-04T12:24:49.448Z,4.37
2017-09-04T12:27:16.962Z,4.87
2017-09-04T12:29:44.522Z,4.90
2017-09-04T12:32:12.039Z,4.23
2017-09-04T12:34:39.540Z,4.23
2017-09-04T12:37:07.056Z,3.97
2017-09-04T12:39:34.734Z,5.03
2017-09-04T12:42:02.328Z,3.60
2017-09-04T12:44:30.235Z,4.07
2017-09-04T12:46:57.744Z,4.00
2017-09-04T12:49:26.091Z,4.87
2017-09-04T12:51:53.815Z,4.20
2017-09-04T12:54:21.326Z,4.50
2017-09-04T12:56:48.899Z,4.80
2017-09-04T12:59:16.464Z,4.10
2017-09-04T13:01:44.038Z,4.97
2017-09-04T13:04:11.580Z,5.30
2017-09-04T13:06:39.083Z,6.93
2017-09-04T13:09:07.711Z,6.17
2017-09-04T13:25:12.531Z,5.17
2017-09-04T13:41:22.374Z,6.43
2017-09-04T13:44:08.847Z,6.60
2017-09-04T13:46:41.967Z,5.83
2017-09-04T13:49:31.087Z,4.93
2017-09-04T13:52:04.351Z,5.90
2017-09-04T14:08:08.599Z,4.00
2017-09-04T14:10:47.935Z,3.90
2017-09-04T14:13:21.962Z,4.67
2017-09-04T14:15:55.203Z,4.03
2017-09-04T14:18:22.719Z,5.30
2017-09-04T14:20:50.271Z,4.77
2017-09-04T14:23:17.863Z,4.97
2017-09-04T14:25:45.364Z,4.50
2017-09-04T14:28:13.500Z,5.00
2017-09-04T14:30:41.003Z,5.00
2017-09-04T14:33:08.518Z,4.83
2017-09-04T14:35:36.019Z,4.20
2017-09-04T14:38:03.535Z,4.40
2017-09-04T14:40:31.491Z,5.93
2017-09-04T14:43:00.627Z,4.70
2017-09-04T14:45:39.092Z,5.03
2017-09-04T14:48:11.179Z,6.13
2017-09-04T14:50:38.683Z,5.50
2017-09-04T14:53:06.215Z,5.70
2017-09-04T14:55:34.527Z,4.43
2017-09-04T14:58:02.895Z,4.03
2017-09-04T15:00:31.404Z,4.10
2017-09-04T15:03:01.620Z,4.50
2017-09-04T15:05:29.200Z,4.10
2017-09-04T15:07:56.703Z,4.53
2017-09-04T15:10:24.226Z,6.77
2017-09-04T15:12:51.815Z,4.30
2017-09-04T15:15:19.331Z,3.50
2017-09-04T15:17:48.215Z,4.90
2017-09-04T15:20:16.451Z,4.73
2017-09-04T15:22:43.955Z,4.40
2017-09-04T15:25:11.476Z,4.30
2017-09-04T15:27:39.056Z,4.60
2017-09-04T15:30:06.580Z,4.90
2017-09-04T15:32:34.813Z,4.23
2017-09-04T15:35:02.318Z,4.80
2017-09-04T15:37:29.855Z,4.53
2017-09-04T15:39:57.359Z,5.20
2017-09-04T15:42:24.883Z,4.40
2017-09-04T15:44:52.476Z,4.17
2017-09-04T15:47:19.995Z,4.10
2017-09-04T15:49:47.507Z,4.53
2017-09-04T15:52:15.022Z,3.73
2017-09-04T15:54:42.531Z,4.80
2017-09-04T15:57:10.772Z,3.77
2017-09-04T15:59:38.275Z,3.87
2017-09-04T16:02:05.899Z,3.67
2017-09-04T16:04:33.399Z,5.23
2017-09-04T16:07:15.743Z,4.73
2017-09-04T16:09:43.247Z,4.70
2017-09-04T16:12:13.514Z,4.97
2017-09-04T16:14:41.611Z,4.43
2017-09-04T16:17:14.787Z,3.90
2017-09-04T16:19:48.838Z,3.97
2017-09-04T16:35:53.007Z,4.80
2017-09-04T16:38:36.979Z,3.67
2017-09-04T16:41:06.322Z,3.47
2017-09-04T16:46:36.680Z,3.80
2017-09-04T16:49:06.015Z,3.90
2017-09-04T16:51:38.063Z,3.90
2017-09-04T16:54:20.459Z,3.70
2017-09-04T16:56:53.419Z,3.63
2017-09-04T16:59:20.983Z,3.87
2017-09-04T17:01:48.482Z,3.43
2017-09-04T17:04:16.722Z,3.40
2017-09-04T17:06:44.300Z,3.60
2017-09-04T17:09:11.827Z,4.40
2017-09-04T17:11:39.327Z,4.27
2017-09-04T17:14:07.719Z,4.83
2017-09-04T17:16:35.931Z,4.60
2017-09-04T17:22:25.710Z,4.50
2017-09-04T17:24:53.968Z,4.20
2017-09-04T17:27:21.527Z,4.33
2017-09-04T17:29:49.056Z,4.20
2017-09-04T17:32:16.719Z,4.73
2017-09-04T17:34:44.245Z,4.80
2017-09-04T17:37:11.752Z,5.40
2017-09-04T17:39:39.271Z,4.37
2017-09-04T17:42:06.775Z,4.57
2017-09-04T17:44:34.307Z,4.47
2017-09-04T17:47:01.804Z,4.27
2017-09-04T17:49:29.427Z,4.63
2017-09-04T17:51:57.780Z,4.17
2017-09-04T17:54:25.286Z,5.07
2017-09-04T17:56:53.655Z,4.70
2017-09-04T17:59:28.161Z,5.40
2017-09-04T18:01:55.739Z,6.80
2017-09-04T18:04:23.243Z,7.20
2017-09-04T18:06:51.544Z,5.67
2017-09-04T18:09:19.127Z,6.33
2017-09-04T18:11:46.646Z,5.20
2017-09-04T18:14:14.151Z,5.03
2017-09-04T18:16:41.673Z,6.17
2017-09-04T18:19:09.174Z,6.40
2017-09-04T18:21:36.706Z,7.67
2017-09-04T18:24:04.216Z,7.17
2017-09-04T18:26:31.790Z,6.23
2017-09-04T18:28:59.316Z,6.90
2017-09-04T18:31:26.860Z,7.60
2017-09-04T18:33:54.374Z,7.17
2017-09-04T18:36:21.874Z,6.70
2017-09-04T18:38:49.395Z,7.50
2017-09-04T18:41:16.898Z,8.37
2017-09-04T18:43:44.418Z,6.07
2017-09-04T18:46:12.686Z,5.87
2017-09-04T18:48:40.202Z,8.00
2017-09-04T18:51:07.970Z,7.90
2017-09-04T18:53:35.491Z,5.17
2017-09-04T18:56:02.991Z,6.07
2017-09-04T18:58:30.510Z,6.20
2017-09-04T19:00:58.027Z,5.87
2017-09-04T19:03:25.543Z,6.53
2017-09-04T19:05:53.038Z,5.80
2017-09-04T19:08:20.544Z,6.20
2017-09-04T19:10:48.923Z,6.60
2017-09-04T19:13:16.422Z,6.80
2017-09-04T19:15:43.939Z,6.00
2017-09-04T19:18:11.447Z,5.80
2017-09-04T19:20:38.971Z,6.00
2017-09-04T19:23:06.470Z,6.67
2017-09-04T19:25:33.995Z,5.80
2017-09-04T19:28:01.558Z,6.60
2017-09-04T19:30:29.072Z,5.60
2017-09-04T19:32:56.579Z,7.13
2017-09-04T19:35:24.098Z,6.90
2017-09-04T19:37:51.602Z,7.83
2017-09-04T19:40:19.119Z,6.33
2017-09-04T19:42:46.623Z,5.83
2017-09-04T19:45:14.613Z,6.77
2017-09-04T19:47:42.123Z,7.10
2017-09-04T19:50:09.715Z,7.10
2017-09-04T19:52:37.219Z,7.40
2017-09-04T19:55:04.819Z,6.80
2017-09-04T19:57:32.398Z,7.03
2017-09-04T20:00:00.619Z,7.27
2017-09-04T20:02:28.139Z,8.80
2017-09-04T20:04:56.507Z,7.00
2017-09-04T20:07:24.028Z,6.40
2017-09-04T20:09:51.534Z,8.87
2017-09-04T20:12:19.070Z,13.23
2017-09-04T20:14:47.407Z,10.13
2017-09-04T20:17:14.935Z,9.23
2017-09-04T20:19:43.286Z,10.27
2017-09-04T20:22:10.799Z,7.77
2017-09-04T20:24:38.295Z,7.50
2017-09-04T20:27:05.815Z,8.60
2017-09-04T20:29:34.035Z,7.27
2017-09-04T20:32:02.364Z,6.00
2017-09-04T20:34:29.923Z,6.60
2017-09-04T20:36:57.483Z,6.17
2017-09-04T20:39:24.987Z,6.87
2017-09-04T20:41:52.611Z,5.80
2017-09-04T20:44:20.115Z,6.60
2017-09-04T20:46:47.719Z,6.40
2017-09-04T20:49:15.274Z,6.30
2017-09-04T20:51:42.778Z,5.60
2017-09-04T20:54:10.390Z,6.17
2017-09-04T20:56:37.896Z,6.33
2017-09-04T20:59:05.539Z,6.83
2017-09-04T21:01:33.043Z,6.80
2017-09-04T21:04:01.183Z,6.87
2017-09-04T21:06:29.399Z,7.53
2017-09-04T21:08:56.923Z,6.27
2017-09-04T21:11:24.539Z,6.17
2017-09-04T21:13:52.067Z,6.43
2017-09-04T21:16:19.567Z,6.60
2017-09-04T21:18:47.083Z,5.40
2017-09-04T21:21:14.663Z,6.37
2017-09-04T21:23:42.195Z,7.37
2017-09-04T21:26:09.696Z,6.50
2017-09-04T21:28:38.015Z,8.10
2017-09-04T21:31:05.531Z,7.60
2017-09-04T21:33:33.031Z,6.90
2017-09-04T21:36:00.754Z,6.23
2017-09-04T21:38:28.255Z,7.80
2017-09-04T21:40:55.859Z,7.13
2017-09-04T21:43:23.355Z,7.23
2017-09-04T21:45:50.910Z,7.20
2017-09-04T21:48:18.435Z,7.53
2017-09-04T21:50:46.099Z,8.33
2017-09-04T21:53:13.603Z,7.40
2017-09-04T21:55:41.211Z,7.20
2017-09-04T21:58:08.706Z,7.43
2017-09-04T22:00:36.222Z,7.97
2017-09-04T22:03:04.034Z,8.30
2017-09-04T22:05:31.552Z,8.27
2017-09-04T22:07:59.111Z,8.03
2017-09-04T22:10:26.629Z,7.03
2017-09-04T22:12:55.054Z,6.10
2017-09-04T22:15:22.603Z,6.83
2017-09-04T22:17:50.103Z,8.00
2017-09-04T22:20:17.619Z,7.00
2017-09-04T22:22:45.114Z,6.60
2017-09-04T22:25:12.614Z,6.73
2017-09-04T22:27:40.131Z,6.20
2017-09-04T22:30:07.631Z,6.53
2017-09-04T22:32:35.268Z,6.40
2017-09-04T22:35:02.766Z,6.30
2017-09-04T22:37:30.454Z,6.50
2017-09-04T22:39:57.959Z,6.90
2017-09-04T22:42:25.550Z,6.60
2017-09-04T22:44:53.050Z,5.97
2017-09-04T22:47:20.667Z,6.47
2017-09-04T22:49:48.162Z,6.43
2017-09-04T22:52:16.390Z,6.40
2017-09-04T22:54:45.491Z,6.20
2017-09-04T22:57:13.003Z,5.60
2017-09-04T22:59:40.494Z,6.77
2017-09-04T23:02:08.011Z,5.90
2017-09-04T23:04:35.511Z,5.30
2017-09-04T23:07:03.051Z,6.30
2017-09-04T23:09:30.552Z,6.00
2017-09-04T23:11:58.046Z,6.50
2017-09-04T23:14:25.554Z,5.77
2017-09-04T23:16:53.055Z,4.87
2017-09-04T23:19:20.676Z,6.33
2017-09-04T23:21:49.032Z,5.60
2017-09-04T23:24:17.311Z,6.27
2017-09-04T23:26:44.820Z,5.43
2017-09-04T23:29:12.342Z,5.57
2017-09-04T23:31:40.227Z,5.70
2017-09-04T23:34:07.750Z,4.87
2017-09-04T23:36:36.042Z,7.23
2017-09-04T23:39:03.562Z,6.60
2017-09-04T23:41:31.191Z,7.37
2017-09-04T23:43:58.712Z,5.90
2017-09-04T23:46:26.215Z,7.33
2017-09-04T23:48:54.663Z,7.70
2017-09-04T23:51:22.219Z,7.30
2017-09-04T23:53:49.774Z,5.90
2017-09-04T23:56:17.290Z,7.53
2017-09-04T23:58:44.796Z,4.93
